메인 페이지
METAR-TAF:

METAR-TAF

공항 :

아르한겔스크, 러시아

위도: 64-30N, 경도: 040-44E, 고도: 13m

현재 날씨관측

예보는 49분 전, 01:30시(UTC)에 발표되었습니다.
동남동4kt
온도 3°C
습도 100%
기압 1003 hPa
시정 10km 이상
고도 3300ft 상공 구름 조금

METAR: ULAA 210130Z 12002MPS 9999 FEW033 03/03 Q1003 R08/CLRD70 NOSIG RMK QFE752/1002

시각: 05:19 (02:19 UTC)

예보

예보는 3 시간 19분 전, 23:00시(UTC)에 발표되었습니다.
예보 대상 시간: 21일 00시부터 21일 24시까지 (UTC)
남동6kt
시정 10km 이상
고도 1100ft 상공 구름 보통
일시적
21일 00시부터 21일 02시까지 (UTC)
여러 방향의 바람 2kt
시정: 0400m
고도 200ft 상공 구름 보통
안개
일시적
21일 02시부터 21일 06시까지 (UTC)
10kt
시정: 3100m
고도 1100ft 상공 구름 많음
약한비, 박무
21일 0600시부터 (UTC)
6kt, 순간 최대 풍속 17kt
시정: 5000m
고도 1200ft 상공 구름 많음
약한비
일시적
21일 06시부터 21일 09시까지 (UTC)
8kt, 순간 최대 풍속 23kt
시정: 3100m
고도 1200ft 상공 구름 많음, 적란운.
약한소나기
일시적
21일 09시부터 21일 19시까지 (UTC)
북동10kt, 순간 최대 풍속 29kt
시정: 0700m
고도 300ft 상공 구름 많음
고도 800ft 상공 구름 많음, 적란운.
강한소나기
일시적
21일 19시부터 21일 24시까지 (UTC)
8kt, 순간 최대 풍속 23kt
시정: 3100m
고도 1100ft 상공 구름 많음, 적란운.
약한소나기

TAF: ULAA 202300Z 2100/2124 13003MPS 9999 SCT011 TEMPO 2100/2102 VRB01MPS 0400 FG SCT002 TEMPO 2102/2106 17005MPS 3100 -RA BR BKN011 FM210600 10003G09MPS 5000 -RA BKN012 TEMPO 2106/2109 08004G12MPS 3100 -SHRA BKN012CB TEMPO 2109/2119 05005G15MPS 0700 +SHRA BKN003 BKN008CB TEMPO 2119/2124 01004G12MPS 3100 -SHRA BKN011CB

4,000개 이상의 공항 관측 자료 및 예보 (METAR 및 TAF 보고).

지도상에서 검색 가능한 기상관측소가 노란 점과 빨간 점으로 표시되어 있습니다.

기상관측소 명을 보려면 표시 위로 마우스를 이동하세요.

날씨 관측과 예보를 보려면 클릭하세요.

지도 변경 : 확대하려면 엑스 표시가 있는 녹색 버튼, 축소하려면 빼기 표시가 있는 녹색 버튼, 다음 페이지의 지도를 보려면 녹색 화살표를 클릭하세요.


METAR-TAF: